Pagrindinis puslapis
METAR-TAF:

METAR-TAF

Oro uostai :

Baja Marė, Rumunija

platuma: 47-40N, ilguma: 023-35E, Aukštis: 218 m

Dabartinis oras

Ataskaita buvo paskelbta 24 minutes, ne 07:00 UTC
Vėjas 4 kt iš Rytų, svyruoja nuo Šiaurės Rytų ir Rytų/Pietryčių
Temperatūra 7°C
Drėgmė 93%
Slėgis 1017 hPa
Matomumas: 9000 m
lietus

METAR: LRBM 310700Z AUTO 09004KT 050V110 9000 -RA SCT021/// OVC025/// 07/06 Q1017

Laikas: 09:24 (07:24 UTC)

Prognozė

Ataskaita buvo paskelbta 11 valandos ir 24 minutes, ne 20:00 UTC
Prognozė galioja nuo 30 metu 21 UTC su 31 metu 06 UTC
Vėjas 4 kt nuo kintamojo kryptimis
Matomumas 10 km arba daugiau
Su prošvaistėmis ne aukštis 4500 ft
Laikinai
nuo 30 metu 21 UTC su 31 metu 04 UTC
Matomumas: 5000 m
Su prošvaistėmis ne aukštis 1500 ft
Išsisklaidę debesys ne aukštis 3500 ft, Liūtiniai kamuoliniai debesys.
Apsiniaukę ne aukštis 4000 ft
lietus

TAF: LRBM 302000Z 3021/3106 VRB04KT 9999 BKN045 TEMPO 3021/3104 5000 SHRA BKN015 SCT035CB OVC040

Orai ataskaitas ir orų prognozės (METAR, TAF).

turimą stotys yra geltonos ir raudonos taškus žemėlapyje.

Perkelti pele per norėdami pamatyti stoties vardą.

Tada spustelėkite, norėdami matyti oro stebėjimo ir prognozės.

Norėdami pakeisti žemėlapį: spustelėkite ant žalios mygtukų su juodo kryžiaus žemyn,; žalią mygtuką su brūkšneliu, jei norite nutolinti; arba žalių rodyklių gretimoms žemėlapius.


METAR-TAF: